| time (UTC) | temp C | wind direction | speed KPH | gust KPH | rain 1hr cm | rain 24hr cm | rain mn cm | humidity % | barometer mb |
| 20260509135020 | 21 | 293 | 1.6 | 6.4 | 0.00 | 0.00 | 0.00 | 87 | 1012.3 |
| 20260509134601 | 20 | 293 | 3.2 | 9.7 | 0.00 | 0.00 | 0.00 | 87 | 1012.3 |
| 20260509134021 | 20 | 293 | 1.6 | 6.4 | 0.00 | 0.00 | 0.00 | 88 | 1012.3 |
| 20260509133524 | 20 | 293 | 3.2 | 9.7 | 0.00 | 0.00 | 0.00 | 89 | 1012.4 |
| 20260509133021 | 20 | 293 | 3.2 | 6.4 | 0.00 | 0.00 | 0.00 | 89 | 1012.5 |
| 20260509132521 | 20 | 293 | 3.2 | 6.4 | 0.00 | 0.00 | 0.00 | 90 | 1012.5 |
| 20260509132020 | 19 | 270 | 1.6 | 6.4 | 0.00 | 0.00 | 0.00 | 91 | 1012.5 |
| 20260509131521 | 19 | 270 | 1.6 | 4.8 | 0.00 | 0.00 | 0.00 | 91 | 1012.5 |
| 20260509131021 | 18 | 0.0 | 3.2 | 0.00 | 0.00 | 0.00 | 91 | 1012.5 | |
| 20260509130520 | 18 | 270 | 4.8 | 11.3 | 0.00 | 0.00 | 0.00 | 91 | 1012.5 |
| 20260509130042 | 18 | 270 | 4.8 | 9.7 | 0.00 | 0.00 | 0.00 | 91 | 1012.5 |
| 20260509125521 | 18 | 270 | 4.8 | 11.3 | 0.00 | 0.00 | 0.00 | 91 | 1012.5 |
| 20260509125020 | 18 | 270 | 4.8 | 9.7 | 0.00 | 0.00 | 0.00 | 92 | 1012.4 |
| 20260509124522 | 18 | 270 | 4.8 | 12.9 | 0.00 | 0.00 | 0.00 | 93 | 1012.4 |
| 20260509124021 | 18 | 270 | 4.8 | 6.4 | 0.00 | 0.00 | 0.00 | 93 | 1012.3 |
| 20260509123520 | 18 | 270 | 3.2 | 6.4 | 0.00 | 0.00 | 0.00 | 93 | 1012.2 |
| 20260509123041 | 18 | 270 | 3.2 | 6.4 | 0.00 | 0.00 | 0.00 | 93 | 1012.2 |
| 20260509122521 | 18 | 270 | 4.8 | 6.4 | 0.00 | 0.00 | 0.00 | 93 | 1012.2 |
| 20260509122021 | 18 | 338 | 3.2 | 6.4 | 0.00 | 0.00 | 0.00 | 93 | 1012.1 |
| 20260509121521 | 18 | 338 | 3.2 | 4.8 | 0.00 | 0.00 | 0.00 | 93 | 1011.9 |
| 20260509121020 | 18 | 338 | 3.2 | 4.8 | 0.00 | 0.00 | 0.00 | 93 | 1011.9 |
| 20260509120521 | 18 | 338 | 1.6 | 3.2 | 0.00 | 0.00 | 0.00 | 93 | 1011.8 |
| 20260509120024 | 17 | 338 | 1.6 | 3.2 | 0.00 | 0.00 | 0.00 | 93 | 1011.7 |
| 20260509115520 | 17 | 338 | 3.2 | 4.8 | 0.00 | 0.00 | 0.00 | 92 | 1011.5 |
| 20260509115021 | 17 | 0.0 | 1.6 | 0.00 | 0.00 | 0.00 | 91 | 1011.5 | |
| 20260509114521 | 17 | 0.0 | 1.6 | 0.00 | 0.00 | 0.00 | 91 | 1011.3 | |
| 20260509114021 | 18 | 0.0 | 0.0 | 0.00 | 0.00 | 0.00 | 91 | 1011.1 | |
| 20260509113641 | 18 | 0.0 | 0.0 | 0.00 | 0.00 | 0.00 | 91 | 1011.0 | |
| 20260509113020 | 18 | 0.0 | 0.0 | 0.00 | 0.00 | 0.00 | 91 | 1011.0 | |
| 20260509112543 | 18 | 0.0 | 0.0 | 0.00 | 0.00 | 0.00 | 91 | 1010.9 | |
| 20260509112021 | 18 | 0.0 | 0.0 | 0.00 | 0.00 | 0.00 | 91 | 1010.9 | |
| 20260509111520 | 18 | 0.0 | 1.6 | 0.00 | 0.00 | 0.00 | 91 | 1010.9 | |
| 20260509111041 | 18 | 0.0 | 1.6 | 0.00 | 0.00 | 0.00 | 91 | 1010.9 | |
| 20260509110521 | 18 | 0.0 | 1.6 | 0.00 | 0.00 | 0.00 | 91 | 1010.9 | |
| 20260509110020 | 18 | 0.0 | 0.0 | 0.00 | 0.00 | 0.00 | 91 | 1010.8 | |
| 20260509105540 | 19 | 0.0 | 3.2 | 0.00 | 0.00 | 0.00 | 91 | 1010.8 | |
| 20260509105021 | 19 | 0.0 | 1.6 | 0.00 | 0.00 | 0.00 | 90 | 1010.8 | |
| 20260509104600 | 19 | 0.0 | 1.6 | 0.00 | 0.00 | 0.00 | 90 | 1010.8 | |
| 20260509104021 | 19 | 0.0 | 1.6 | 0.00 | 0.00 | 0.00 | 90 | 1010.8 | |
| 20260509103526 | 19 | 0.0 | 3.2 | 0.00 | 0.00 | 0.00 | 90 | 1010.8 | |
| 20260509103021 | 20 | 0.0 | 3.2 | 0.00 | 0.00 | 0.00 | 90 | 1010.7 | |
| 20260509102541 | 20 | 338 | 1.6 | 4.8 | 0.00 | 0.00 | 0.00 | 90 | 1010.7 |
| 20260509102020 | 20 | 338 | 3.2 | 8.0 | 0.00 | 0.00 | 0.00 | 90 | 1010.7 |
| 20260509101520 | 20 | 315 | 3.2 | 8.0 | 0.00 | 0.00 | 0.00 | 90 | 1010.6 |
| 20260509101020 | 20 | 315 | 3.2 | 8.0 | 0.00 | 0.00 | 0.00 | 89 | 1010.5 |
| 20260509100520 | 20 | 68 | 3.2 | 6.4 | 0.00 | 0.00 | 0.00 | 90 | 1010.5 |
| 20260509100021 | 20 | 68 | 4.8 | 12.9 | 0.00 | 0.00 | 0.00 | 90 | 1010.4 |
| 20260509095522 | 20 | 90 | 6.4 | 12.9 | 0.00 | 0.00 | 0.00 | 89 | 1010.4 |
| 20260509095022 | 20 | 338 | 3.2 | 6.4 | 0.00 | 0.00 | 0.00 | 89 | 1010.5 |
| 20260509094522 | 20 | 338 | 3.2 | 6.4 | 0.00 | 0.00 | 0.00 | 89 | 1010.5 |
| 20260509094022 | 20 | 68 | 3.2 | 6.4 | 0.00 | 0.00 | 0.00 | 89 | 1010.5 |
| 20260509093520 | 20 | 68 | 6.4 | 12.9 | 0.00 | 0.00 | 0.00 | 89 | 1010.4 |
| 20260509093021 | 20 | 68 | 8.0 | 11.3 | 0.00 | 0.00 | 0.00 | 89 | 1010.4 |
| 20260509092522 | 20 | 68 | 8.0 | 12.9 | 0.00 | 0.00 | 0.00 | 88 | 1010.3 |
| 20260509092022 | 20 | 68 | 8.0 | 12.9 | 0.00 | 0.00 | 0.00 | 88 | 1010.3 |
| 20260509091523 | 20 | 68 | 9.7 | 12.9 | 0.00 | 0.00 | 0.00 | 88 | 1010.3 |
| 20260509091022 | 20 | 68 | 11.3 | 14.5 | 0.00 | 0.00 | 0.00 | 88 | 1010.5 |
| 20260509090524 | 20 | 45 | 11.3 | 16.1 | 0.00 | 0.00 | 0.00 | 88 | 1010.4 |
| 20260509090025 | 20 | 45 | 9.7 | 14.5 | 0.00 | 0.00 | 0.00 | 87 | 1010.5 |
| 20260509085522 | 20 | 45 | 8.0 | 11.3 | 0.00 | 0.00 | 0.00 | 87 | 1010.5 |
| 20260509085022 | 21 | 45 | 9.7 | 14.5 | 0.00 | 0.00 | 0.00 | 87 | 1010.5 |
| 20260509084521 | 21 | 45 | 11.3 | 16.1 | 0.00 | 0.00 | 0.00 | 86 | 1010.6 |
| 20260509084021 | 21 | 45 | 14.5 | 17.7 | 0.00 | 0.00 | 0.00 | 86 | 1010.8 |
| 20260509083522 | 21 | 45 | 12.9 | 19.3 | 0.00 | 0.00 | 0.00 | 86 | 1010.7 |
| 20260509083021 | 21 | 45 | 11.3 | 16.1 | 0.00 | 0.00 | 0.00 | 86 | 1010.6 |
| 20260509082524 | 21 | 45 | 9.7 | 14.5 | 0.00 | 0.00 | 0.00 | 86 | 1010.7 |
| 20260509082041 | 21 | 45 | 9.7 | 14.5 | 0.00 | 0.00 | 0.00 | 86 | 1010.9 |
| 20260509081522 | 21 | 45 | 9.7 | 14.5 | 0.00 | 0.00 | 0.00 | 86 | 1010.9 |
| 20260509081023 | 21 | 45 | 9.7 | 12.9 | 0.00 | 0.00 | 0.00 | 85 | 1010.7 |
| 20260509080522 | 21 | 45 | 8.0 | 9.7 | 0.00 | 0.00 | 0.00 | 85 | 1010.7 |
| 20260509080022 | 21 | 68 | 4.8 | 8.0 | 0.00 | 0.00 | 0.00 | 85 | 1010.7 |
| 20260509075523 | 21 | 90 | 4.8 | 11.3 | 0.00 | 0.00 | 0.00 | 84 | 1010.6 |
| 20260509075022 | 21 | 90 | 6.4 | 14.5 | 0.00 | 0.00 | 0.00 | 84 | 1010.6 |
| 20260509074522 | 22 | 90 | 6.4 | 16.1 | 0.00 | 0.00 | 0.00 | 85 | 1010.7 |
| 20260509074023 | 22 | 90 | 8.0 | 17.7 | 0.00 | 0.00 | 0.00 | 84 | 1010.6 |
| 20260509073522 | 22 | 90 | 11.3 | 17.7 | 0.00 | 0.00 | 0.00 | 84 | 1010.4 |
| 20260509073022 | 22 | 90 | 9.7 | 20.9 | 0.00 | 0.00 | 0.00 | 84 | 1010.3 |
| 20260509072543 | 22 | 90 | 12.9 | 22.5 | 0.00 | 0.00 | 0.00 | 84 | 1010.4 |
| 20260509072022 | 22 | 90 | 11.3 | 19.3 | 0.00 | 0.00 | 0.00 | 85 | 1010.7 |
| 20260509071522 | 22 | 90 | 12.9 | 24.1 | 0.00 | 0.00 | 0.00 | 85 | 1010.5 |
| 20260509071022 | 21 | 90 | 11.3 | 16.1 | 0.00 | 0.00 | 0.00 | 84 | 1010.0 |
| 20260509070522 | 21 | 90 | 14.5 | 22.5 | 0.00 | 0.00 | 0.00 | 84 | 1009.6 |
| 20260509070037 | 21 | 90 | 11.3 | 17.7 | 0.00 | 0.00 | 0.00 | 85 | 1009.8 |
| 20260509065542 | 22 | 90 | 9.7 | 16.1 | 0.00 | 0.00 | 0.00 | 84 | 1010.0 |
| 20260509065022 | 22 | 90 | 8.0 | 12.9 | 0.00 | 0.00 | 0.00 | 84 | 1010.0 |
| 20260509064522 | 22 | 90 | 8.0 | 14.5 | 0.00 | 0.00 | 0.00 | 84 | 1010.1 |
| 20260509064022 | 22 | 135 | 8.0 | 17.7 | 0.00 | 0.00 | 0.00 | 83 | 1010.3 |
| 20260509063526 | 22 | 113 | 8.0 | 19.3 | 0.00 | 0.00 | 0.00 | 83 | 1010.0 |
| 20260509063022 | 22 | 113 | 3.2 | 11.3 | 0.00 | 0.00 | 0.00 | 83 | 1010.7 |
| 20260509062542 | 22 | 248 | 3.2 | 12.9 | 0.00 | 0.00 | 0.00 | 83 | 1011.1 |
| 20260509062022 | 22 | 135 | 4.8 | 12.9 | 0.00 | 0.00 | 0.00 | 83 | 1010.8 |
| 20260509061522 | 22 | 90 | 3.2 | 8.0 | 0.00 | 0.00 | 0.00 | 83 | 1011.6 |
| 20260509061022 | 22 | 135 | 6.4 | 16.1 | 0.00 | 0.00 | 0.00 | 82 | 1010.8 |
| 20260509060522 | 22 | 135 | 4.8 | 8.0 | 0.00 | 0.00 | 0.00 | 82 | 1011.1 |
| 20260509060022 | 22 | 315 | 3.2 | 9.7 | 0.00 | 0.00 | 0.00 | 82 | 1011.3 |
| 20260509055522 | 22 | 113 | 3.2 | 6.4 | 0.00 | 0.00 | 0.00 | 82 | 1011.9 |
| 20260509055023 | 22 | 113 | 3.2 | 4.8 | 0.00 | 0.00 | 0.00 | 82 | 1011.7 |
| 20260509054522 | 22 | 23 | 4.8 | 8.0 | 0.00 | 0.00 | 0.00 | 82 | 1011.9 |
| 20260509054022 | 22 | 158 | 3.2 | 6.4 | 0.00 | 0.00 | 0.00 | 81 | 1011.5 |
| 20260509053522 | 22 | 158 | 1.6 | 6.4 | 0.00 | 0.00 | 0.00 | 81 | 1011.3 |
| 20260509053042 | 22 | 158 | 4.8 | 9.7 | 0.00 | 0.00 | 0.00 | 81 | 1011.7 |
| 20260509052523 | 22 | 293 | 4.8 | 16.1 | 0.00 | 0.00 | 0.00 | 81 | 1011.8 |
| 20260509052022 | 22 | 270 | 12.9 | 20.9 | 0.00 | 0.00 | 0.00 | 81 | 1012.2 |
| 20260509051522 | 22 | 225 | 14.5 | 25.7 | 0.00 | 0.00 | 0.00 | 80 | 1011.4 |
| 20260509051042 | 22 | 248 | 11.3 | 20.9 | 0.00 | 0.00 | 0.00 | 79 | 1011.5 |
| 20260509050544 | 22 | 270 | 9.7 | 19.3 | 0.00 | 0.00 | 0.00 | 79 | 1011.5 |
| 20260509050022 | 22 | 293 | 14.5 | 25.7 | 0.00 | 0.00 | 0.00 | 79 | 1011.4 |
| 20260509045524 | 22 | 270 | 14.5 | 32.2 | 0.00 | 0.00 | 0.00 | 80 | 1011.1 |
| 20260509045022 | 22 | 315 | 12.9 | 27.4 | 0.00 | 0.00 | 0.00 | 81 | 1011.2 |
| 20260509044522 | 22 | 225 | 20.9 | 37.0 | 0.00 | 0.00 | 0.00 | 82 | 1010.1 |
| 20260509044022 | 22 | 203 | 27.4 | 57.9 | 0.00 | 0.00 | 0.00 | 82 | 1009.1 |
| 20260509043522 | 21 | 158 | 16.1 | 61.2 | 0.00 | 0.00 | 0.00 | 84 | 1009.0 |
| 20260509043022 | 21 | 68 | 9.7 | 19.3 | 0.00 | 0.00 | 0.00 | 84 | 1010.5 |
| 20260509042522 | 21 | 203 | 16.1 | 29.0 | 0.00 | 0.00 | 0.00 | 83 | 1010.3 |
| 20260509042042 | 21 | 203 | 14.5 | 30.6 | 0.00 | 0.00 | 0.00 | 83 | 1010.5 |
| 20260509041522 | 21 | 203 | 14.5 | 25.7 | 0.00 | 0.00 | 0.00 | 82 | 1010.8 |
| 20260509041022 | 21 | 203 | 11.3 | 24.1 | 0.00 | 0.00 | 0.00 | 81 | 1011.4 |
| 20260509040522 | 21 | 248 | 6.4 | 12.9 | 0.00 | 0.00 | 0.00 | 81 | 1012.4 |
| 20260509040023 | 22 | 225 | 11.3 | 16.1 | 0.00 | 0.00 | 0.00 | 81 | 1011.9 |
| 20260509035521 | 21 | 270 | 6.4 | 12.9 | 0.00 | 0.00 | 0.00 | 81 | 1012.3 |
| 20260509035022 | 21 | 293 | 6.4 | 16.1 | 0.00 | 0.00 | 0.00 | 81 | 1012.9 |
| 20260509034522 | 21 | 293 | 6.4 | 14.5 | 0.00 | 0.00 | 0.00 | 82 | 1012.8 |
| 20260509034021 | 21 | 0 | 3.2 | 8.0 | 0.00 | 0.00 | 0.00 | 82 | 1012.5 |
| 20260509033522 | 21 | 45 | 4.8 | 6.4 | 0.00 | 0.00 | 0.00 | 81 | 1012.0 |
| 20260509033022 | 21 | 180 | 3.2 | 4.8 | 0.00 | 0.00 | 0.00 | 81 | 1011.6 |
| 20260509032542 | 21 | 180 | 3.2 | 4.8 | 0.00 | 0.00 | 0.00 | 81 | 1011.2 |
| 20260509032022 | 21 | 180 | 4.8 | 12.9 | 0.00 | 0.00 | 0.00 | 80 | 1010.7 |
| 20260509031521 | 21 | 203 | 8.0 | 16.1 | 0.00 | 0.00 | 0.00 | 80 | 1010.3 |
| 20260509031042 | 21 | 180 | 6.4 | 14.5 | 0.00 | 0.00 | 0.00 | 80 | 1010.1 |
| 20260509030542 | 21 | 158 | 6.4 | 14.5 | 0.00 | 0.00 | 0.00 | 80 | 1010.3 |
| 20260509030022 | 21 | 158 | 8.0 | 16.1 | 0.00 | 0.00 | 0.00 | 80 | 1010.3 |
| 20260509025521 | 21 | 158 | 6.4 | 12.9 | 0.00 | 0.00 | 0.00 | 79 | 1010.4 |
| 20260509025022 | 21 | 135 | 8.0 | 16.1 | 0.00 | 0.00 | 0.00 | 80 | 1010.8 |
| 20260509024522 | 21 | 135 | 8.0 | 17.7 | 0.00 | 0.00 | 0.00 | 79 | 1010.5 |
| 20260509024021 | 22 | 113 | 6.4 | 12.9 | 0.00 | 0.00 | 0.00 | 79 | 1010.6 |
| 20260509023602 | 22 | 135 | 8.0 | 17.7 | 0.00 | 0.00 | 0.00 | 79 | 1010.5 |
| 20260509023041 | 22 | 135 | 11.3 | 19.3 | 0.00 | 0.00 | 0.00 | 79 | 1010.1 |
| 20260509022522 | 22 | 135 | 8.0 | 16.1 | 0.00 | 0.00 | 0.00 | 78 | 1010.0 |
| 20260509022021 | 22 | 113 | 8.0 | 16.1 | 0.00 | 0.00 | 0.00 | 78 | 1010.0 |
| 20260509021522 | 22 | 113 | 8.0 | 14.5 | 0.00 | 0.00 | 0.00 | 78 | 1010.0 |
| 20260509021021 | 22 | 135 | 6.4 | 16.1 | 0.00 | 0.00 | 0.00 | 77 | 1009.6 |
| 20260509020522 | 22 | 180 | 9.7 | 19.3 | 0.00 | 0.00 | 0.00 | 77 | 1009.3 |
| 20260509020021 | 22 | 203 | 9.7 | 19.3 | 0.00 | 0.00 | 0.00 | 76 | 1009.3 |
| 20260509015521 | 22 | 203 | 8.0 | 14.5 | 0.00 | 0.00 | 0.00 | 76 | 1009.9 |
| 20260509015022 | 23 | 158 | 4.8 | 9.7 | 0.00 | 0.00 | 0.00 | 76 | 1010.2 |
| 20260509014521 | 23 | 68 | 1.6 | 6.4 | 0.00 | 0.00 | 0.00 | 76 | 1010.4 |
| 20260509014022 | 23 | 0.0 | 1.6 | 0.00 | 0.00 | 0.00 | 76 | 1010.4 | |
| 20260509013542 | 23 | 0.0 | 1.6 | 0.00 | 0.00 | 0.00 | 76 | 1010.3 | |
| 20260509013021 | 23 | 68 | 1.6 | 3.2 | 0.00 | 0.00 | 0.00 | 76 | 1009.9 |
| 20260509012521 | 23 | 68 | 1.6 | 4.8 | 0.00 | 0.00 | 0.00 | 75 | 1009.7 |
| 20260509012102 | 23 | 203 | 1.6 | 6.4 | 0.00 | 0.00 | 0.00 | 74 | 1009.4 |
| 20260509011523 | 23 | 180 | 4.8 | 14.5 | 0.00 | 0.00 | 0.00 | 73 | 1009.0 |
| 20260509011021 | 23 | 180 | 6.4 | 19.3 | 0.00 | 0.00 | 0.00 | 73 | 1008.8 |
| 20260509010522 | 23 | 180 | 8.0 | 19.3 | 0.00 | 0.00 | 0.00 | 73 | 1008.7 |
| 20260509010042 | 23 | 180 | 6.4 | 14.5 | 0.00 | 0.00 | 0.00 | 73 | 1008.4 |
| 20260509005522 | 23 | 180 | 9.7 | 20.9 | 0.00 | 0.00 | 0.00 | 72 | 1008.4 |
| 20260509005021 | 24 | 203 | 8.0 | 17.7 | 0.00 | 0.00 | 0.00 | 72 | 1008.6 |
| 20260509004522 | 24 | 203 | 9.7 | 20.9 | 0.00 | 0.00 | 0.00 | 71 | 1008.8 |
| 20260509004021 | 25 | 203 | 11.3 | 20.9 | 0.00 | 0.00 | 0.00 | 70 | 1008.9 |
| 20260509003521 | 25 | 203 | 9.7 | 16.1 | 0.00 | 0.00 | 0.00 | 70 | 1009.0 |
| 20260509003022 | 25 | 225 | 9.7 | 20.9 | 0.00 | 0.00 | 0.00 | 68 | 1009.1 |
| 20260509002521 | 25 | 203 | 4.8 | 12.9 | 0.00 | 0.00 | 0.00 | 68 | 1009.1 |
| 20260509002022 | 25 | 203 | 8.0 | 19.3 | 0.00 | 0.00 | 0.00 | 67 | 1009.0 |
| 20260509001542 | 26 | 203 | 8.0 | 14.5 | 0.00 | 0.00 | 0.00 | 67 | 1009.0 |
| 20260509001022 | 26 | 158 | 6.4 | 16.1 | 0.00 | 0.00 | 0.00 | 66 | 1008.9 |
| 20260509000541 | 26 | 203 | 4.8 | 14.5 | 0.00 | 0.00 | 0.00 | 66 | 1008.9 |
| 20260509000021 | 26 | 203 | 6.4 | 12.9 | 0.00 | 0.00 | 0.00 | 66 | 1008.9 |
| 20260508235522 | 26 | 180 | 8.0 | 19.3 | 0.00 | 0.00 | 0.00 | 66 | 1008.7 |
| 20260508235021 | 26 | 203 | 9.7 | 17.7 | 0.00 | 0.00 | 0.00 | 65 | 1008.6 |
| 20260508234521 | 26 | 180 | 9.7 | 22.5 | 0.00 | 0.00 | 0.00 | 66 | 1008.6 |
| 20260508234021 | 26 | 158 | 11.3 | 19.3 | 0.00 | 0.00 | 0.00 | 65 | 1008.5 |
| 20260508233522 | 26 | 180 | 11.3 | 22.5 | 0.00 | 0.00 | 0.00 | 65 | 1008.6 |
| 20260508233021 | 26 | 203 | 9.7 | 22.5 | 0.00 | 0.00 | 0.00 | 65 | 1008.6 |
| 20260508232521 | 26 | 203 | 9.7 | 24.1 | 0.00 | 0.00 | 0.00 | 65 | 1008.4 |
| 20260508232021 | 26 | 203 | 11.3 | 22.5 | 0.00 | 0.00 | 0.00 | 64 | 1008.4 |
| 20260508231521 | 27 | 203 | 11.3 | 30.6 | 0.00 | 0.00 | 0.00 | 63 | 1008.5 |
| 20260508231022 | 27 | 180 | 12.9 | 27.4 | 0.00 | 0.00 | 0.00 | 63 | 1008.4 |
| 20260508230541 | 27 | 203 | 8.0 | 20.9 | 0.00 | 0.00 | 0.00 | 63 | 1008.6 |
| 20260508230022 | 27 | 203 | 12.9 | 27.4 | 0.00 | 0.00 | 0.00 | 62 | 1008.6 |
| 20260508225541 | 27 | 203 | 12.9 | 27.4 | 0.00 | 0.00 | 0.00 | 62 | 1008.6 |
| 20260508225102 | 27 | 203 | 12.9 | 22.5 | 0.00 | 0.00 | 0.00 | 62 | 1008.6 |
| 20260508224521 | 27 | 203 | 9.7 | 19.3 | 0.00 | 0.00 | 0.00 | 62 | 1008.8 |
| 20260508224021 | 27 | 180 | 9.7 | 22.5 | 0.00 | 0.00 | 0.00 | 62 | 1008.8 |
| 20260508223521 | 27 | 203 | 9.7 | 19.3 | 0.00 | 0.00 | 0.00 | 62 | 1008.9 |
| 20260508223041 | 27 | 203 | 12.9 | 20.9 | 0.00 | 0.00 | 0.00 | 61 | 1008.9 |
| 20260508222601 | 27 | 203 | 9.7 | 22.5 | 0.00 | 0.00 | 0.00 | 60 | 1008.9 |
| 20260508222021 | 27 | 203 | 9.7 | 19.3 | 0.00 | 0.00 | 0.00 | 60 | 1008.9 |
| 20260508221521 | 27 | 203 | 11.3 | 24.1 | 0.00 | 0.00 | 0.00 | 59 | 1009.0 |
| 20260508221022 | 27 | 225 | 12.9 | 22.5 | 0.00 | 0.00 | 0.00 | 60 | 1009.0 |
| 20260508220541 | 27 | 203 | 14.5 | 22.5 | 0.00 | 0.00 | 0.00 | 58 | 1009.0 |
| 20260508220021 | 28 | 203 | 11.3 | 22.5 | 0.00 | 0.00 | 0.00 | 57 | 1009.0 |
| 20260508215521 | 28 | 135 | 8.0 | 19.3 | 0.00 | 0.00 | 0.00 | 58 | 1009.1 |
| 20260508215021 | 28 | 158 | 8.0 | 16.1 | 0.00 | 0.00 | 0.00 | 57 | 1009.2 |
| 20260508214521 | 28 | 203 | 9.7 | 19.3 | 0.00 | 0.00 | 0.00 | 57 | 1009.2 |
| 20260508214023 | 27 | 203 | 8.0 | 20.9 | 0.00 | 0.00 | 0.00 | 58 | 1009.2 |
| 20260508213521 | 27 | 203 | 12.9 | 24.1 | 0.00 | 0.00 | 0.00 | 57 | 1009.2 |
| 20260508213021 | 27 | 203 | 11.3 | 30.6 | 0.00 | 0.00 | 0.00 | 58 | 1009.3 |
| 20260508212541 | 27 | 180 | 12.9 | 25.7 | 0.00 | 0.00 | 0.00 | 58 | 1009.4 |
| 20260508212021 | 27 | 203 | 14.5 | 25.7 | 0.00 | 0.00 | 0.00 | 60 | 1009.4 |
| 20260508211521 | 28 | 203 | 16.1 | 27.4 | 0.00 | 0.00 | 0.00 | 58 | 1009.4 |
| 20260508211021 | 28 | 203 | 9.7 | 19.3 | 0.00 | 0.00 | 0.00 | 57 | 1009.7 |
| 20260508210541 | 28 | 135 | 11.3 | 29.0 | 0.00 | 0.00 | 0.00 | 56 | 1009.7 |
| 20260508210021 | 28 | 203 | 9.7 | 22.5 | 0.00 | 0.00 | 0.00 | 56 | 1009.9 |
| 20260508205521 | 28 | 158 | 11.3 | 24.1 | 0.00 | 0.00 | 0.00 | 56 | 1010.1 |
| 20260508205021 | 28 | 203 | 11.3 | 25.7 | 0.00 | 0.00 | 0.00 | 56 | 1010.0 |
| 20260508204521 | 28 | 203 | 11.3 | 20.9 | 0.00 | 0.00 | 0.00 | 56 | 1010.1 |
| 20260508204021 | 28 | 203 | 8.0 | 20.9 | 0.00 | 0.00 | 0.00 | 57 | 1010.2 |
| 20260508203541 | 28 | 180 | 11.3 | 24.1 | 0.00 | 0.00 | 0.00 | 59 | 1010.3 |
| 20260508203101 | 28 | 203 | 11.3 | 22.5 | 0.00 | 0.00 | 0.00 | 57 | 1010.4 |
| 20260508202522 | 27 | 203 | 12.9 | 35.4 | 0.00 | 0.00 | 0.00 | 58 | 1010.3 |
| 20260508202041 | 27 | 203 | 8.0 | 17.7 | 0.00 | 0.00 | 0.00 | 59 | 1010.5 |
| 20260508201521 | 27 | 135 | 9.7 | 25.7 | 0.00 | 0.00 | 0.00 | 61 | 1010.6 |
| 20260508201021 | 27 | 225 | 14.5 | 27.4 | 0.00 | 0.00 | 0.00 | 58 | 1010.6 |
| 20260508200521 | 27 | 203 | 12.9 | 30.6 | 0.00 | 0.00 | 0.00 | 59 | 1010.7 |
| 20260508200022 | 27 | 180 | 12.9 | 25.7 | 0.00 | 0.00 | 0.00 | 59 | 1010.8 |
| 20260508195521 | 27 | 158 | 11.3 | 19.3 | 0.00 | 0.00 | 0.00 | 60 | 1010.9 |
| 20260508195021 | 27 | 158 | 11.3 | 24.1 | 0.00 | 0.00 | 0.00 | 58 | 1010.9 |
| 20260508194521 | 27 | 180 | 11.3 | 25.7 | 0.00 | 0.00 | 0.00 | 58 | 1010.9 |
| 20260508194021 | 27 | 180 | 9.7 | 19.3 | 0.00 | 0.00 | 0.00 | 58 | 1011.1 |
| 20260508193521 | 27 | 158 | 11.3 | 22.5 | 0.00 | 0.00 | 0.00 | 58 | 1011.1 |
| 20260508193022 | 27 | 180 | 9.7 | 24.1 | 0.00 | 0.00 | 0.00 | 59 | 1011.1 |
| 20260508192521 | 27 | 203 | 9.7 | 19.3 | 0.00 | 0.00 | 0.00 | 58 | 1011.1 |
| 20260508192022 | 27 | 158 | 8.0 | 14.5 | 0.00 | 0.00 | 0.00 | 58 | 1011.2 |
| 20260508191541 | 26 | 158 | 9.7 | 22.5 | 0.00 | 0.00 | 0.00 | 59 | 1011.2 |
| 20260508191041 | 26 | 203 | 9.7 | 25.7 | 0.00 | 0.00 | 0.00 | 56 | 1011.3 |
| 20260508190521 | 26 | 158 | 8.0 | 20.9 | 0.00 | 0.00 | 0.00 | 58 | 1011.3 |
| 20260508190022 | 26 | 158 | 8.0 | 24.1 | 0.00 | 0.00 | 0.00 | 58 | 1011.5 |
| 20260508185521 | 26 | 158 | 9.7 | 24.1 | 0.00 | 0.00 | 0.00 | 58 | 1011.6 |
| 20260508185021 | 26 | 203 | 11.3 | 29.0 | 0.00 | 0.00 | 0.00 | 56 | 1011.7 |
| 20260508184521 | 26 | 135 | 8.0 | 20.9 | 0.00 | 0.00 | 0.00 | 57 | 1011.7 |
| 20260508184021 | 26 | 135 | 8.0 | 20.9 | 0.00 | 0.00 | 0.00 | 58 | 1011.9 |
| 20260508183541 | 26 | 203 | 9.7 | 20.9 | 0.00 | 0.00 | 0.00 | 56 | 1012.0 |
| 20260508183041 | 26 | 180 | 8.0 | 17.7 | 0.00 | 0.00 | 0.00 | 57 | 1012.1 |
| 20260508182542 | 26 | 203 | 8.0 | 14.5 | 0.00 | 0.00 | 0.00 | 56 | 1012.2 |
| 20260508182021 | 26 | 135 | 6.4 | 20.9 | 0.00 | 0.00 | 0.00 | 54 | 1012.3 |
| 20260508181521 | 26 | 135 | 8.0 | 17.7 | 0.00 | 0.00 | 0.00 | 58 | 1012.4 |
| 20260508181021 | 26 | 135 | 4.8 | 17.7 | 0.00 | 0.00 | 0.00 | 57 | 1012.5 |
| 20260508180521 | 26 | 135 | 9.7 | 20.9 | 0.00 | 0.00 | 0.00 | 58 | 1012.7 |
| 20260508175541 | 26 | 135 | 6.4 | 12.9 | 0.00 | 0.00 | 0.00 | 59 | 1013.0 |
| 20260508175021 | 25 | 135 | 8.0 | 19.3 | 0.00 | 0.00 | 0.00 | 60 | 1013.1 |
| 20260508174522 | 25 | 203 | 9.7 | 20.9 | 0.00 | 0.00 | 0.00 | 63 | 1013.2 |
| 20260508174021 | 25 | 135 | 8.0 | 17.7 | 0.00 | 0.00 | 0.00 | 61 | 1013.2 |
| 20260508173521 | 25 | 135 | 8.0 | 19.3 | 0.00 | 0.00 | 0.00 | 57 | 1013.2 |
| 20260508173021 | 25 | 135 | 4.8 | 14.5 | 0.00 | 0.00 | 0.00 | 61 | 1013.3 |
| 20260508172521 | 24 | 203 | 9.7 | 24.1 | 0.00 | 0.00 | 0.00 | 59 | 1013.4 |
| 20260508172022 | 24 | 225 | 11.3 | 24.1 | 0.00 | 0.00 | 0.00 | 60 | 1013.4 |
| 20260508171521 | 24 | 203 | 12.9 | 24.1 | 0.00 | 0.00 | 0.00 | 60 | 1013.5 |
| 20260508171041 | 24 | 135 | 11.3 | 20.9 | 0.00 | 0.00 | 0.00 | 60 | 1013.6 |
| 20260508170522 | 24 | 135 | 9.7 | 24.1 | 0.00 | 0.00 | 0.00 | 61 | 1013.8 |
| 20260508170021 | 24 | 180 | 9.7 | 24.1 | 0.00 | 0.00 | 0.00 | 63 | 1013.8 |
| 20260508165521 | 23 | 203 | 8.0 | 19.3 | 0.00 | 0.00 | 0.00 | 62 | 1013.9 |
| 20260508165042 | 23 | 203 | 11.3 | 22.5 | 0.00 | 0.00 | 0.00 | 62 | 1014.0 |
| 20260508164521 | 23 | 135 | 8.0 | 17.7 | 0.00 | 0.00 | 0.00 | 64 | 1014.0 |
| 20260508164023 | 23 | 203 | 9.7 | 22.5 | 0.00 | 0.00 | 0.00 | 65 | 1014.1 |
| 20260508163521 | 23 | 180 | 9.7 | 19.3 | 0.00 | 0.00 | 0.00 | 65 | 1014.2 |
| 20260508163022 | 23 | 180 | 6.4 | 14.5 | 0.00 | 0.00 | 0.00 | 68 | 1014.4 |
| 20260508162541 | 22 | 225 | 6.4 | 16.1 | 0.00 | 0.00 | 0.00 | 70 | 1014.4 |
| 20260508162021 | 22 | 203 | 4.8 | 14.5 | 0.00 | 0.00 | 0.00 | 68 | 1014.4 |
| 20260508161521 | 22 | 158 | 8.0 | 19.3 | 0.00 | 0.00 | 0.00 | 70 | 1014.6 |
| 20260508161026 | 21 | 158 | 6.4 | 16.1 | 0.00 | 0.00 | 0.00 | 73 | 1014.6 |
| 20260508160522 | 20 | 225 | 6.4 | 12.9 | 0.00 | 0.00 | 0.00 | 75 | 1014.7 |
| 20260508160020 | 20 | 225 | 9.7 | 16.1 | 0.00 | 0.00 | 0.00 | 73 | 1014.7 |
| 20260508155626 | 20 | 203 | 9.7 | 19.3 | 0.00 | 0.00 | 0.00 | 73 | 1014.6 |
| 20260508155156 | 20 | 225 | 6.4 | 14.5 | 0.00 | 0.00 | 0.00 | 77 | 1014.8 |
| 20260508154200 | 19 | 180 | 6.4 | 14.5 | 0.00 | 0.00 | 0.00 | 78 | 1015.0 |
| 20260508153802 | 19 | 225 | 6.4 | 14.5 | 0.00 | 0.00 | 0.00 | 77 | 1014.9 |
| 20260508153022 | 19 | 135 | 8.0 | 19.3 | 0.00 | 0.00 | 0.00 | 77 | 1014.9 |
| 20260508152541 | 19 | 203 | 11.3 | 24.1 | 0.00 | 0.00 | 0.00 | 76 | 1014.8 |
| 20260508152021 | 18 | 203 | 11.3 | 22.5 | 0.00 | 0.00 | 0.00 | 75 | 1014.9 |
| 20260508151521 | 18 | 225 | 11.3 | 20.9 | 0.00 | 0.00 | 0.00 | 76 | 1014.9 |
| 20260508151021 | 18 | 225 | 8.0 | 20.9 | 0.00 | 0.00 | 0.00 | 77 | 1014.9 |
| 20260508150521 | 18 | 225 | 6.4 | 16.1 | 0.00 | 0.00 | 0.00 | 77 | 1014.9 |
| 20260508150021 | 18 | 180 | 6.4 | 16.1 | 0.00 | 0.00 | 0.00 | 78 | 1015.2 |
| 20260508145709 | 18 | 203 | 4.8 | 11.3 | 0.00 | 0.00 | 0.00 | 78 | 1015.2 |
| 20260508145023 | 18 | 225 | 8.0 | 17.7 | 0.00 | 0.00 | 0.00 | 78 | 1015.1 |
| 20260508144521 | 18 | 225 | 3.2 | 11.3 | 0.00 | 0.00 | 0.00 | 80 | 1015.1 |
| 20260508144021 | 18 | 225 | 6.4 | 12.9 | 0.00 | 0.00 | 0.00 | 80 | 1015.3 |
| 20260508143520 | 18 | 225 | 9.7 | 24.1 | 0.00 | 0.00 | 0.00 | 79 | 1015.5 |
| 20260508143048 | 18 | 203 | 9.7 | 19.3 | 0.00 | 0.00 | 0.00 | 79 | 1015.4 |
| 20260508142521 | 18 | 248 | 11.3 | 17.7 | 0.00 | 0.00 | 0.00 | 79 | 1015.8 |
| 20260508142020 | 18 | 225 | 14.5 | 19.3 | 0.00 | 0.00 | 0.00 | 79 | 1015.9 |
| 20260508141521 | 18 | 158 | 6.4 | 12.9 | 0.00 | 0.00 | 0.00 | 81 | 1015.5 |
| 20260508141020 | 18 | 180 | 6.4 | 11.3 | 0.00 | 0.00 | 0.00 | 80 | 1015.7 |
| 20260508140521 | 18 | 135 | 4.8 | 14.5 | 0.00 | 0.00 | 0.00 | 81 | 1015.6 |
| 20260508140020 | 17 | 203 | 8.0 | 14.5 | 0.00 | 0.00 | 0.00 | 82 | 1015.7 |